Terminal Aerodrome Forecast
Issued by NWS

Home | Current Version | Previous Version | Text Only | Print | Product List | Glossary On
Versions: 1 2 3 4 5 6 7 8 9 10 11 12 13 14 15 16 17 18 19 20 21 22
000
FTUS41 KOKX 201700
TAFSWF
TAF
KSWF 201732Z 2018/2124 22010KT P6SM SCT035 BKN050
      TEMPO 2018/2021 BKN035
     FM202100 19008KT P6SM SCT035 BKN080
     FM210100 VRB05KT P6SM SCT030 SCT080
     FM210300 VRB04KT P6SM BKN025 BKN080
     FM210600 VRB04KT 6SM BR BKN015
     FM211600 VRB04KT P6SM SCT015 BKN035
     FM211900 21006KT P6SM SCT150
      AMD NOT SKED=

USA.gov is the U.S. government's official web portal to all federal, state and local government web resources and services.